< < Back
Terminal Aerodrome Forecast


Current Version              Previous Versions:   1  2  3  4  5  6  7  8  9  

Terminal Aerodrome Forecast

983
FTUS44 KHUN 210521
TAFHSV
TAF
KHSV 210521Z 2106/2206 12004KT P6SM SCT250
      TEMPO 2110/2112 5SM BR
     FM211500 27010KT P6SM SCT120 BKN250
     FM220100 32005KT P6SM SCT070=



Latest METAR

548
SAUS80 KWBC 211000
MTRHSV
METAR KHSV 210953Z AUTO 00000KT 9SM CLR 18/17 A3001 RMK AO2 SLP154
T01830167 $


USA.gov is the U.S. government's official web portal to all federal, state and local government web resources and services.